Time;durP1;ratioP1;P1;durP2;ratioP2;P2;SDS_P1;SDS_P2;PMS_P1;PMS_P2;Temp;Humidity;BMP_temperature;BMP_pressure;BME280_temperature;BME280_humidity;BME280_pressure;Samples;Min_cycle;Max_cycle;Signal;HPM_P1;HPM_P2
2023/08/30 00:00:40;;;;;;;0.00;0.00;;;15.60;83.60;;;;;;5028218;28;20068;-68
2023/08/30 00:03:06;;;;;;;0.00;0.00;;;15.50;83.60;;;;;;5013807;28;20051;-68
2023/08/30 00:05:32;;;;;;;0.00;0.00;;;15.50;83.60;;;;;;5021750;28;20077;-68
2023/08/30 00:07:58;;;;;;;0.00;0.00;;;15.40;83.60;;;;;;5023337;28;20041;-68
2023/08/30 00:10:24;;;;;;;0.00;0.00;;;15.50;83.60;;;;;;5010883;28;20519;-68
2023/08/30 00:12:49;;;;;;;0.00;0.00;;;15.50;83.50;;;;;;5007191;28;20045;-68
2023/08/30 00:15:16;;;;;;;0.00;0.00;;;15.50;83.60;;;;;;5004680;28;20129;-68
2023/08/30 00:17:41;;;;;;;0.00;0.00;;;15.50;83.60;;;;;;5018434;28;20042;-68
2023/08/30 00:20:08;;;;;;;0.00;0.00;;;15.40;83.50;;;;;;5005962;28;20064;-68
2023/08/30 00:22:34;;;;;;;0.00;0.00;;;15.30;83.40;;;;;;5020735;28;20046;-68
2023/08/30 00:25:00;;;;;;;0.00;0.00;;;15.30;83.40;;;;;;5009372;28;20056;-68
2023/08/30 00:27:25;;;;;;;0.00;0.00;;;15.30;83.30;;;;;;5023649;28;20081;-68
2023/08/30 00:29:51;;;;;;;0.00;0.00;;;15.30;83.30;;;;;;5020633;28;20041;-68
2023/08/30 00:32:17;;;;;;;0.00;0.00;;;15.30;83.40;;;;;;5029903;28;20048;-69
2023/08/30 00:34:42;;;;;;;0.00;0.00;;;15.30;83.40;;;;;;5029081;28;20042;-69
2023/08/30 00:37:08;;;;;;;0.00;0.00;;;15.30;83.30;;;;;;5025345;28;20120;-69
2023/08/30 00:39:37;;;;;;;0.00;0.00;;;15.20;83.30;;;;;;5029236;28;20132;-68
2023/08/30 00:42:05;;;;;;;0.00;0.00;;;15.20;83.30;;;;;;5023975;28;20044;-68
2023/08/30 00:44:32;;;;;;;0.00;0.00;;;15.10;83.30;;;;;;5008894;28;20042;-68
2023/08/30 00:46:58;;;;;;;0.00;0.00;;;15.10;83.20;;;;;;5008216;28;20658;-68
2023/08/30 00:49:24;;;;;;;0.00;0.00;;;15.00;83.10;;;;;;5011564;28;20049;-68
2023/08/30 00:51:50;;;;;;;0.00;0.00;;;15.00;83.20;;;;;;5028807;28;20046;-68
2023/08/30 00:54:16;;;;;;;0.00;0.00;;;15.00;83.20;;;;;;5008759;28;20049;-71
2023/08/30 00:56:41;;;;;;;0.00;0.00;;;15.00;83.20;;;;;;5010607;28;20414;-71
2023/08/30 00:59:07;;;;;;;0.08;0.08;;;15.00;83.20;;;;;;5004898;28;20063;-71
2023/08/30 01:01:32;;;;;;;0.00;0.00;;;15.00;83.20;;;;;;5025190;28;20076;-71
2023/08/30 01:03:58;;;;;;;0.00;0.00;;;14.90;83.30;;;;;;5028505;28;20045;-71
2023/08/30 01:06:24;;;;;;;0.00;0.00;;;14.90;83.30;;;;;;5011350;28;20045;-71
2023/08/30 01:08:51;;;;;;;0.00;0.00;;;14.80;83.30;;;;;;5008424;28;20038;-71
2023/08/30 01:11:32;;;;;;;0.00;0.00;;;14.80;83.50;;;;;;4993272;28;20058;-71
2023/08/30 01:14:35;;;;;;;0.00;0.00;;;14.80;83.50;;;;;;5005824;28;20508;-70
2023/08/30 01:17:02;;;;;;;0.00;0.00;;;14.80;83.40;;;;;;4995757;28;20295;-70
2023/08/30 01:19:46;;;;;;;0.00;0.00;;;14.80;83.30;;;;;;5010457;28;20104;-70
2023/08/30 01:22:17;;;;;;;0.00;0.00;;;14.70;83.30;;;;;;5009955;28;20108;-71
2023/08/30 01:25:14;;;;;;;0.00;0.00;;;14.70;83.30;;;;;;5020239;28;20139;-68
2023/08/30 01:27:40;;;;;;;0.00;0.00;;;14.60;83.20;;;;;;5001026;28;20047;-68
2023/08/30 01:30:10;;;;;;;0.00;0.00;;;14.60;83.20;;;;;;5007754;28;20042;-67
2023/08/30 01:32:37;;;;;;;0.00;0.00;;;14.60;83.20;;;;;;4991866;28;20052;-68
2023/08/30 01:35:04;;;;;;;0.00;0.00;;;14.60;83.20;;;;;;4997790;28;20038;-68
2023/08/30 01:37:31;;;;;;;0.00;0.00;;;14.50;83.10;;;;;;5001789;28;20050;-68
2023/08/30 01:39:58;;;;;;;0.00;0.00;;;14.50;83.10;;;;;;5009230;28;20401;-68
2023/08/30 01:42:27;;;;;;;0.05;0.05;;;14.50;83.20;;;;;;5007903;28;20066;-68
2023/08/30 01:44:57;;;;;;;0.00;0.00;;;14.40;83.20;;;;;;5002024;28;20045;-68
2023/08/30 01:47:25;;;;;;;0.00;0.00;;;14.40;83.20;;;;;;5010910;28;20164;-68
2023/08/30 01:49:52;;;;;;;0.00;0.00;;;14.40;83.30;;;;;;5028258;28;20061;-68
2023/08/30 01:52:18;;;;;;;0.00;0.00;;;14.30;83.40;;;;;;5024274;28;20405;-68
2023/08/30 01:54:45;;;;;;;0.00;0.00;;;14.30;83.40;;;;;;5015372;28;20041;-68
2023/08/30 01:57:11;;;;;;;0.00;0.00;;;14.30;83.40;;;;;;5026509;28;20112;-69
2023/08/30 01:59:36;;;;;;;0.00;0.00;;;14.30;83.40;;;;;;5010804;28;20184;-68
2023/08/30 02:02:04;;;;;;;0.00;0.00;;;14.20;83.50;;;;;;5023421;28;20057;-68
2023/08/30 02:04:31;;;;;;;0.00;0.00;;;14.20;83.50;;;;;;5007213;28;20072;-68
2023/08/30 02:07:04;;;;;;;0.00;0.00;;;14.20;83.40;;;;;;5016317;28;20132;-68
2023/08/30 02:09:44;;;;;;;0.00;0.00;;;14.10;83.30;;;;;;5027917;28;20076;-68
2023/08/30 02:12:15;;;;;;;0.08;0.08;;;14.10;83.40;;;;;;5027570;28;20199;-68
2023/08/30 02:14:45;;;;;;;0.00;0.00;;;14.00;83.30;;;;;;5011059;28;20049;-68
2023/08/30 02:17:15;;;;;;;0.10;0.10;;;14.00;83.30;;;;;;5010069;28;20117;-68
2023/08/30 02:19:43;;;;;;;0.00;0.00;;;13.90;83.40;;;;;;5005861;28;20045;-68
2023/08/30 02:22:09;;;;;;;0.00;0.00;;;13.90;83.50;;;;;;5022808;28;20041;-68
2023/08/30 02:24:34;;;;;;;0.00;0.00;;;13.90;83.50;;;;;;5008030;28;20053;-68
2023/08/30 02:27:00;;;;;;;0.08;0.08;;;13.90;83.50;;;;;;5009473;28;20045;-68
2023/08/30 02:29:26;;;;;;;0.00;0.00;;;13.80;83.50;;;;;;5010904;28;20071;-68
2023/08/30 02:31:51;;;;;;;0.00;0.00;;;13.80;83.50;;;;;;5022483;28;20383;-68
2023/08/30 02:34:17;;;;;;;0.00;0.00;;;13.90;83.50;;;;;;5031264;28;20413;-68
2023/08/30 02:36:42;;;;;;;0.00;0.00;;;13.80;83.60;;;;;;5013867;28;20041;-68
2023/08/30 02:39:08;;;;;;;0.00;0.00;;;13.80;83.70;;;;;;5032527;28;20410;-68
2023/08/30 02:41:34;;;;;;;0.00;0.00;;;13.80;83.80;;;;;;5028806;28;20042;-68
2023/08/30 02:44:00;;;;;;;0.00;0.00;;;13.80;83.90;;;;;;5010770;28;20054;-68
2023/08/30 02:46:25;;;;;;;0.00;0.00;;;13.90;84.00;;;;;;5010426;28;20072;-68
2023/08/30 02:48:51;;;;;;;0.00;0.00;;;13.80;84.20;;;;;;5013843;28;20056;-68
2023/08/30 02:51:17;;;;;;;0.00;0.00;;;13.90;84.20;;;;;;5012389;28;20053;-68
2023/08/30 02:53:42;;;;;;;0.00;0.00;;;13.80;84.30;;;;;;5022422;28;20049;-67
2023/08/30 02:56:08;;;;;;;0.00;0.00;;;13.90;84.40;;;;;;5012653;28;20045;-68
2023/08/30 02:58:33;;;;;;;0.00;0.00;;;13.90;84.40;;;;;;5005022;28;20045;-68
2023/08/30 03:01:01;;;;;;;0.20;0.20;;;13.90;84.60;;;;;;5011532;28;20442;-68
2023/08/30 03:03:26;;;;;;;0.25;0.25;;;14.00;84.60;;;;;;5013952;28;20413;-68
2023/08/30 03:05:52;;;;;;;0.05;0.05;;;14.00;84.70;;;;;;5030838;28;20050;-68
2023/08/30 03:08:17;;;;;;;0.00;0.00;;;14.00;84.70;;;;;;5007114;28;20069;-68
2023/08/30 03:10:43;;;;;;;0.20;0.20;;;14.00;84.90;;;;;;5017262;28;20049;-68
2023/08/30 03:13:09;;;;;;;0.00;0.00;;;14.00;84.80;;;;;;5031232;28;20052;-68
2023/08/30 03:15:34;;;;;;;0.00;0.00;;;14.00;84.70;;;;;;5014183;28;20041;-68
2023/08/30 03:18:01;;;;;;;0.17;0.17;;;14.00;84.80;;;;;;4996218;28;20545;-68
2023/08/30 03:20:28;;;;;;;0.00;0.00;;;14.00;84.70;;;;;;5011383;28;20046;-68
2023/08/30 03:22:56;;;;;;;0.00;0.00;;;14.10;84.70;;;;;;5016478;28;20107;-68
2023/08/30 03:25:21;;;;;;;0.00;0.00;;;14.10;84.70;;;;;;5006334;28;20052;-68
2023/08/30 03:27:47;;;;;;;0.00;0.00;;;14.10;84.70;;;;;;5027305;28;20413;-68
2023/08/30 03:30:13;;;;;;;0.00;0.00;;;14.10;84.80;;;;;;5013587;28;20601;-68
2023/08/30 03:32:39;;;;;;;0.00;0.00;;;14.20;84.80;;;;;;5025360;28;20052;-68
2023/08/30 03:35:05;;;;;;;0.00;0.00;;;14.20;85.00;;;;;;5009745;28;20061;-68
2023/08/30 03:37:31;;;;;;;0.57;0.57;;;14.20;85.00;;;;;;5025037;28;20037;-68
2023/08/30 03:39:56;;;;;;;0.00;0.00;;;14.20;85.20;;;;;;5013487;28;20383;-69
2023/08/30 03:42:22;;;;;;;0.00;0.00;;;14.30;85.20;;;;;;5016645;28;20108;-68
2023/08/30 03:44:48;;;;;;;0.00;0.00;;;14.30;85.20;;;;;;5010058;28;20132;-69
2023/08/30 03:47:13;;;;;;;0.00;0.00;;;14.40;85.40;;;;;;5013046;28;20486;-68
2023/08/30 03:49:39;;;;;;;0.10;0.10;;;14.40;85.50;;;;;;5010330;28;20042;-68
2023/08/30 03:52:05;;;;;;;0.05;0.05;;;14.40;85.40;;;;;;5012884;28;20049;-68
2023/08/30 03:54:31;;;;;;;0.00;0.00;;;14.50;85.40;;;;;;5030528;28;20584;-68
2023/08/30 03:56:57;;;;;;;0.00;0.00;;;14.50;85.40;;;;;;5011602;28;20037;-68
2023/08/30 03:59:23;;;;;;;0.00;0.00;;;14.50;85.30;;;;;;5010646;28;20049;-68
2023/08/30 04:01:49;;;;;;;0.00;0.00;;;14.50;85.40;;;;;;5013295;28;20059;-68
2023/08/30 04:04:15;;;;;;;0.00;0.00;;;14.60;85.20;;;;;;5015413;28;20046;-68
2023/08/30 04:06:40;;;;;;;0.00;0.00;;;14.60;85.10;;;;;;5013147;28;20052;-68
2023/08/30 04:09:06;;;;;;;0.10;0.10;;;14.60;85.20;;;;;;5031039;28;20469;-68
2023/08/30 04:11:32;;;;;;;0.00;0.00;;;14.60;85.20;;;;;;5009821;28;20042;-68
2023/08/30 04:13:58;;;;;;;0.00;0.00;;;14.60;85.20;;;;;;5003219;28;20041;-68
2023/08/30 04:16:23;;;;;;;0.00;0.00;;;14.60;85.00;;;;;;5024687;28;20540;-68
2023/08/30 04:18:49;;;;;;;0.00;0.00;;;14.60;85.00;;;;;;5013024;28;20053;-68
2023/08/30 04:21:14;;;;;;;0.00;0.00;;;14.60;85.00;;;;;;5010788;28;20466;-68
2023/08/30 04:23:40;;;;;;;0.00;0.00;;;14.60;85.00;;;;;;5009568;28;20046;-68
2023/08/30 04:26:05;;;;;;;0.00;0.00;;;14.60;85.00;;;;;;5012056;28;20041;-68
2023/08/30 04:28:31;;;;;;;0.32;0.32;;;14.60;85.00;;;;;;5012013;28;20068;-68
2023/08/30 04:30:57;;;;;;;0.00;0.00;;;14.60;85.10;;;;;;5029877;28;20045;-68
2023/08/30 04:33:26;;;;;;;0.00;0.00;;;14.60;85.20;;;;;;5008635;28;20396;-68
2023/08/30 04:35:52;;;;;;;0.08;0.08;;;14.50;85.30;;;;;;5009162;28;20557;-68
2023/08/30 04:38:19;;;;;;;0.00;0.00;;;14.50;85.40;;;;;;4997653;28;20451;-68
2023/08/30 04:40:45;;;;;;;0.00;0.00;;;14.50;85.30;;;;;;5029456;28;20555;-68
2023/08/30 04:43:11;;;;;;;0.00;0.00;;;14.50;85.30;;;;;;5008215;28;20046;-68
2023/08/30 04:45:37;;;;;;;0.00;0.00;;;14.60;85.20;;;;;;5005113;28;20053;-68
2023/08/30 04:48:04;;;;;;;0.00;0.00;;;14.50;85.20;;;;;;5007041;28;20501;-69
2023/08/30 04:50:30;;;;;;;0.10;0.10;;;14.50;85.20;;;;;;5019966;28;20057;-69
2023/08/30 04:52:56;;;;;;;0.15;0.15;;;14.50;85.00;;;;;;5011708;28;20501;-69
2023/08/30 04:55:23;;;;;;;0.00;0.00;;;14.50;85.00;;;;;;5011866;28;20047;-69
2023/08/30 04:57:49;;;;;;;0.00;0.00;;;14.50;84.90;;;;;;4993820;28;20133;-68
2023/08/30 05:00:20;;;;;;;0.00;0.00;;;14.50;85.00;;;;;;5011473;28;20900;-69
2023/08/30 05:02:57;;;;;;;0.00;0.00;;;14.40;84.90;;;;;;5001147;28;20129;-68
2023/08/30 05:05:23;;;;;;;0.10;0.10;;;14.40;85.10;;;;;;4998434;28;20791;-68
2023/08/30 05:08:17;;;;;;;0.05;0.05;;;14.40;85.00;;;;;;5027906;28;20208;-68
2023/08/30 05:10:46;;;;;;;0.10;0.10;;;14.50;85.00;;;;;;4928724;29;20067;-68
2023/08/30 05:13:32;;;;;;;1.75;1.02;;;14.50;85.20;;;;;;4924179;29;20112;-69
2023/08/30 05:16:04;;;;;;;0.00;0.00;;;14.50;85.10;;;;;;4911446;29;20048;-70
2023/08/30 05:18:35;;;;;;;0.08;0.08;;;14.40;85.20;;;;;;4928880;29;20044;-69
2023/08/30 05:21:51;;;;;;;0.00;0.00;;;14.40;85.20;;;;;;4927641;29;20532;-70
2023/08/30 05:27:34;;;;;;;0.00;0.00;;;14.50;85.30;;;;;;4913411;28;20047;-70
2023/08/30 05:30:09;;;;;;;0.00;0.00;;;14.50;85.40;;;;;;4983198;28;20049;-69
2023/08/30 05:32:52;;;;;;;0.00;0.00;;;14.50;85.30;;;;;;4984302;28;20150;-69
2023/08/30 05:35:18;;;;;;;0.00;0.00;;;14.50;85.30;;;;;;4986627;28;20054;-70
2023/08/30 05:37:44;;;;;;;0.00;0.00;;;14.50;84.90;;;;;;4986510;28;20034;-69
2023/08/30 05:40:10;;;;;;;0.10;0.10;;;14.50;85.10;;;;;;4986169;28;20470;-69
2023/08/30 05:42:36;;;;;;;0.00;0.00;;;14.50;85.00;;;;;;4971580;28;20045;-69
2023/08/30 05:45:02;;;;;;;0.00;0.00;;;14.50;84.90;;;;;;4986259;28;20435;-69
2023/08/30 05:47:27;;;;;;;0.00;0.00;;;14.50;85.10;;;;;;4984414;28;20133;-69
2023/08/30 05:49:53;;;;;;;0.00;0.00;;;14.60;85.00;;;;;;4967916;28;20458;-71
2023/08/30 05:52:19;;;;;;;0.10;0.10;;;14.60;85.20;;;;;;4988470;28;20042;-69
2023/08/30 05:54:44;;;;;;;0.00;0.00;;;14.60;85.20;;;;;;4998806;28;20049;-69
2023/08/30 05:57:10;;;;;;;0.00;0.00;;;14.60;85.10;;;;;;5023487;28;20156;-68
2023/08/30 05:59:36;;;;;;;0.00;0.00;;;14.60;84.90;;;;;;5007183;28;20041;-69
2023/08/30 06:02:02;;;;;;;0.00;0.00;;;14.60;84.90;;;;;;5012396;28;20045;-69
2023/08/30 06:04:27;;;;;;;0.00;0.00;;;14.60;85.10;;;;;;5019870;28;20068;-69
2023/08/30 06:06:53;;;;;;;0.00;0.00;;;14.60;85.00;;;;;;4999576;28;20057;-69
2023/08/30 06:09:19;;;;;;;0.00;0.00;;;14.60;84.90;;;;;;5026489;28;20033;-69
2023/08/30 06:11:50;;;;;;;0.10;0.10;;;14.60;84.90;;;;;;5002270;28;20080;-70
2023/08/30 06:18:12;;;;;;;0.00;0.00;;;14.60;84.80;;;;;;5026319;28;20060;-70
2023/08/30 06:21:14;;;;;;;0.00;0.00;;;14.60;84.70;;;;;;5025096;28;20111;-70
2023/08/30 06:23:43;;;;;;;0.00;0.00;;;14.60;84.60;;;;;;4920096;29;20440;-71
2023/08/30 06:26:08;;;;;;;0.05;0.05;;;14.60;84.50;;;;;;4930284;29;20063;-70
2023/08/30 06:28:43;;;;;;;0.00;0.00;;;14.60;84.60;;;;;;4926799;29;20467;-70
2023/08/30 06:31:11;;;;;;;0.00;0.00;;;14.50;84.40;;;;;;4920490;29;20047;-71
2023/08/30 06:33:38;;;;;;;0.20;0.20;;;14.60;84.30;;;;;;4926948;29;20140;-71
2023/08/30 06:36:15;;;;;;;0.05;0.05;;;14.60;84.30;;;;;;4927947;29;20059;-72
2023/08/30 06:39:09;;;;;;;0.00;0.00;;;14.70;84.20;;;;;;4903462;29;20195;-71
2023/08/30 06:41:34;;;;;;;0.30;0.30;;;14.80;84.20;;;;;;4987081;28;20057;-70
2023/08/30 06:44:00;;;;;;;0.15;0.15;;;14.90;84.10;;;;;;5027848;28;20060;-69
2023/08/30 06:46:26;;;;;;;0.20;0.20;;;15.00;83.90;;;;;;5029371;28;20037;-69
2023/08/30 06:48:51;;;;;;;0.00;0.00;;;15.00;84.00;;;;;;5027318;28;20052;-69
2023/08/30 06:51:17;;;;;;;0.10;0.10;;;15.10;84.00;;;;;;5012338;28;20055;-69
2023/08/30 06:53:42;;;;;;;0.00;0.00;;;15.20;83.90;;;;;;5008590;28;20110;-68
2023/08/30 06:56:08;;;;;;;0.00;0.00;;;15.50;85.60;;;;;;5030524;28;20049;-71
2023/08/30 06:58:34;;;;;;;0.00;0.00;;;16.10;87.60;;;;;;5030614;28;20054;-69
2023/08/30 07:01:00;;;;;;;0.00;0.00;;;16.20;85.60;;;;;;5012872;28;20049;-67
2023/08/30 07:03:25;;;;;;;0.00;0.00;;;16.40;84.30;;;;;;5020761;28;20061;-67
2023/08/30 07:05:52;;;;;;;0.05;0.05;;;16.50;82.10;;;;;;5020134;28;20049;-68
2023/08/30 07:08:17;;;;;;;0.00;0.00;;;16.60;82.90;;;;;;5010675;28;20061;-68
2023/08/30 07:10:46;;;;;;;0.00;0.00;;;16.80;82.40;;;;;;5002019;28;20401;-69
2023/08/30 07:13:23;;;;;;;0.10;0.10;;;16.80;81.00;;;;;;5029549;28;20091;-69
2023/08/30 07:15:49;;;;;;;0.00;0.00;;;16.70;80.40;;;;;;5030983;28;20054;-69
2023/08/30 07:18:15;;;;;;;0.00;0.00;;;16.50;80.30;;;;;;5029178;28;20053;-69
2023/08/30 07:20:40;;;;;;;0.00;0.00;;;16.50;80.00;;;;;;5028856;28;20084;-70
2023/08/30 07:23:12;;;;;;;0.57;0.57;;;16.30;79.80;;;;;;5029437;28;20058;-69
2023/08/30 07:25:38;;;;;;;0.00;0.00;;;16.30;80.00;;;;;;5028434;28;20041;-69
2023/08/30 07:28:05;;;;;;;0.10;0.10;;;16.20;80.00;;;;;;5029287;28;20192;-70
2023/08/30 07:30:30;;;;;;;0.00;0.00;;;16.20;79.90;;;;;;5030001;28;20037;-69
2023/08/30 07:32:56;;;;;;;0.10;0.10;;;16.10;79.60;;;;;;5029874;28;20049;-69
2023/08/30 07:35:22;;;;;;;0.00;0.00;;;16.20;80.10;;;;;;5026912;28;20041;-68
2023/08/30 07:37:48;;;;;;;0.00;0.00;;;16.20;80.50;;;;;;5029856;28;20106;-69
2023/08/30 07:40:20;;;;;;;0.00;0.00;;;16.20;80.50;;;;;;5029998;28;20125;-68
2023/08/30 07:42:46;;;;;;;0.00;0.00;;;16.20;80.40;;;;;;5027439;28;20124;-69
2023/08/30 07:45:12;;;;;;;0.05;0.05;;;16.20;79.90;;;;;;5022164;28;20132;-70
2023/08/30 07:47:38;;;;;;;0.00;0.00;;;16.20;79.80;;;;;;5024857;28;20040;-69
2023/08/30 07:50:06;;;;;;;0.00;0.00;;;16.20;79.50;;;;;;5016317;28;20046;-67
2023/08/30 07:52:31;;;;;;;0.00;0.00;;;16.20;80.00;;;;;;5024273;28;20045;-69
2023/08/30 07:54:57;;;;;;;0.00;0.00;;;16.30;79.60;;;;;;5028035;28;20063;-68
2023/08/30 07:57:22;;;;;;;0.10;0.10;;;16.20;78.80;;;;;;5028500;28;20033;-70
2023/08/30 07:59:48;;;;;;;0.00;0.00;;;16.30;79.50;;;;;;5027113;28;20042;-70
2023/08/30 08:02:13;;;;;;;0.00;0.00;;;16.50;79.80;;;;;;5030764;28;20046;-69
2023/08/30 08:04:39;;;;;;;0.00;0.00;;;16.60;79.50;;;;;;5030336;28;20110;-69
2023/08/30 08:07:05;;;;;;;0.28;0.28;;;16.50;78.80;;;;;;5030409;28;20037;-71
2023/08/30 08:09:31;;;;;;;0.00;0.00;;;16.50;77.40;;;;;;5029578;28;20490;-69
2023/08/30 08:11:57;;;;;;;0.00;0.00;;;16.50;78.00;;;;;;5017576;28;20092;-70
2023/08/30 08:15:03;;;;;;;0.00;0.00;;;16.50;78.60;;;;;;5011762;28;20049;-69
2023/08/30 08:17:29;;;;;;;0.40;0.40;;;16.50;78.80;;;;;;5019036;28;20037;-69
2023/08/30 08:19:54;;;;;;;0.00;0.00;;;16.50;78.80;;;;;;5018129;28;20413;-70
2023/08/30 08:22:20;;;;;;;0.00;0.00;;;16.50;78.80;;;;;;5012269;28;20446;-70
2023/08/30 08:24:46;;;;;;;0.03;0.03;;;16.60;78.50;;;;;;5029986;28;20096;-70
2023/08/30 08:27:12;;;;;;;0.35;0.35;;;16.60;78.60;;;;;;5010620;28;20038;-70
2023/08/30 08:29:38;;;;;;;0.52;0.38;;;16.50;78.00;;;;;;5010021;28;20038;-70
2023/08/30 08:32:04;;;;;;;0.00;0.00;;;16.60;78.30;;;;;;5023542;28;20396;-69
2023/08/30 08:34:29;;;;;;;0.00;0.00;;;16.50;78.80;;;;;;5029937;28;20037;-70
2023/08/30 08:36:56;;;;;;;0.00;0.00;;;16.50;78.90;;;;;;5029465;28;20041;-69
2023/08/30 08:39:21;;;;;;;1.45;1.30;;;16.50;79.00;;;;;;5012908;28;20061;-70
2023/08/30 08:41:48;;;;;;;0.08;0.08;;;16.50;79.10;;;;;;5029915;28;20052;-70
2023/08/30 08:44:14;;;;;;;0.00;0.00;;;16.50;79.60;;;;;;5021180;28;20095;-69
2023/08/30 08:46:41;;;;;;;0.00;0.00;;;16.40;80.30;;;;;;5027178;28;20794;-68
2023/08/30 08:49:13;;;;;;;0.00;0.00;;;16.40;81.00;;;;;;5027571;28;20041;-69
2023/08/30 08:51:39;;;;;;;0.00;0.00;;;16.30;81.60;;;;;;5008842;28;20088;-69
2023/08/30 08:54:06;;;;;;;0.98;0.88;;;16.20;81.90;;;;;;5028247;28;20420;-70
2023/08/30 08:56:33;;;;;;;0.08;0.08;;;16.10;82.10;;;;;;5020958;28;20038;-71
2023/08/30 08:58:59;;;;;;;0.00;0.00;;;16.10;81.90;;;;;;5006366;28;20128;-71
2023/08/30 09:01:26;;;;;;;0.10;0.10;;;16.00;82.60;;;;;;5019794;28;20569;-71
2023/08/30 09:03:51;;;;;;;0.00;0.00;;;16.00;83.40;;;;;;5024876;28;20085;-67
2023/08/30 09:06:18;;;;;;;0.00;0.00;;;16.10;84.30;;;;;;5021788;28;20045;-71
2023/08/30 09:08:50;;;;;;;1.45;0.93;;;16.00;83.30;;;;;;5027919;28;20088;-71
2023/08/30 09:11:21;;;;;;;0.00;0.00;;;16.00;82.90;;;;;;5005570;28;20026;-71
2023/08/30 09:13:47;;;;;;;0.00;0.00;;;16.00;83.00;;;;;;5022079;28;20085;-71
2023/08/30 09:16:13;;;;;;;0.00;0.00;;;16.00;83.00;;;;;;5021249;28;20512;-70
2023/08/30 09:18:40;;;;;;;0.00;0.00;;;16.00;83.30;;;;;;5028764;28;20064;-72
2023/08/30 09:21:10;;;;;;;0.05;0.05;;;15.90;83.30;;;;;;5028697;28;20049;-71
2023/08/30 09:23:36;;;;;;;0.00;0.00;;;15.90;83.40;;;;;;5009040;28;20115;-70
2023/08/30 09:26:02;;;;;;;0.10;0.10;;;15.80;83.20;;;;;;5027688;28;20608;-69
2023/08/30 09:28:44;;;;;;;0.10;0.10;;;15.90;83.50;;;;;;5029118;28;20391;-71
2023/08/30 09:31:19;;;;;;;0.00;0.00;;;15.80;83.60;;;;;;4992478;28;20128;-70
2023/08/30 09:33:45;;;;;;;0.00;0.00;;;15.80;83.80;;;;;;5027770;28;20053;-72
2023/08/30 09:36:11;;;;;;;0.00;0.00;;;15.80;84.10;;;;;;5010229;28;20057;-72
2023/08/30 09:38:37;;;;;;;0.00;0.00;;;15.80;84.30;;;;;;5026712;28;20134;-70
2023/08/30 09:41:04;;;;;;;0.00;0.00;;;15.80;84.40;;;;;;5026935;28;20147;-72
2023/08/30 09:43:31;;;;;;;0.00;0.00;;;15.80;84.50;;;;;;5026721;28;20517;-72
2023/08/30 09:45:57;;;;;;;0.00;0.00;;;15.80;84.50;;;;;;5027136;28;20489;-68
2023/08/30 09:48:28;;;;;;;2.38;0.88;;;15.80;84.50;;;;;;5026703;28;20049;-68
2023/08/30 09:50:54;;;;;;;0.00;0.00;;;15.90;84.80;;;;;;5027718;28;20049;-68
2023/08/30 09:53:24;;;;;;;0.00;0.00;;;15.90;84.80;;;;;;5028051;28;20513;-67
2023/08/30 09:55:52;;;;;;;0.00;0.00;;;16.00;85.20;;;;;;5028214;28;20077;-68
2023/08/30 09:58:18;;;;;;;0.00;0.00;;;16.00;85.40;;;;;;5019763;28;20059;-68
2023/08/30 10:00:44;;;;;;;0.00;0.00;;;16.10;85.40;;;;;;5010276;28;20514;-68
2023/08/30 10:03:09;;;;;;;0.28;0.20;;;16.10;85.30;;;;;;5011582;28;20058;-67
2023/08/30 10:05:36;;;;;;;0.17;0.17;;;16.20;85.50;;;;;;5027647;28;20053;-67
2023/08/30 10:08:04;;;;;;;0.00;0.00;;;16.30;85.60;;;;;;5027574;28;20052;-67
2023/08/30 10:10:31;;;;;;;0.00;0.00;;;16.30;85.50;;;;;;5027017;28;20053;-67
2023/08/30 10:12:57;;;;;;;0.00;0.00;;;16.40;85.10;;;;;;5027477;28;20809;-67
2023/08/30 10:15:26;;;;;;;0.00;0.00;;;16.30;85.20;;;;;;5010137;28;20053;-67
2023/08/30 10:17:54;;;;;;;0.00;0.00;;;16.30;85.10;;;;;;5010620;28;20493;-67
2023/08/30 10:20:20;;;;;;;0.00;0.00;;;16.20;85.00;;;;;;5027870;28;20037;-67
2023/08/30 10:22:49;;;;;;;0.00;0.00;;;16.30;85.20;;;;;;5024597;28;20083;-68
2023/08/30 10:25:22;;;;;;;0.00;0.00;;;16.30;85.30;;;;;;5009925;28;20505;-67
2023/08/30 10:27:49;;;;;;;0.00;0.00;;;16.30;85.00;;;;;;4999730;28;20052;-67
2023/08/30 10:30:17;;;;;;;0.00;0.00;;;16.30;85.00;;;;;;5024426;28;20050;-67
2023/08/30 10:32:45;;;;;;;0.20;0.20;;;16.30;85.00;;;;;;5027094;28;20081;-67
2023/08/30 10:35:16;;;;;;;0.00;0.00;;;16.30;85.30;;;;;;5025511;28;20054;-68
2023/08/30 10:37:42;;;;;;;0.00;0.00;;;16.40;85.30;;;;;;5009215;28;20082;-68
2023/08/30 10:40:08;;;;;;;0.00;0.00;;;16.40;85.40;;;;;;5017355;28;20053;-67
2023/08/30 10:42:34;;;;;;;0.00;0.00;;;16.40;85.10;;;;;;5011183;28;20060;-67
2023/08/30 10:45:07;;;;;;;0.00;0.00;;;16.30;85.20;;;;;;5014622;28;20565;-67
2023/08/30 10:47:38;;;;;;;0.00;0.00;;;16.30;85.60;;;;;;5028673;28;20444;-67
2023/08/30 10:50:09;;;;;;;0.00;0.00;;;16.30;86.20;;;;;;5027807;28;20132;-68
2023/08/30 10:52:35;;;;;;;0.32;0.32;;;16.40;86.60;;;;;;5023273;28;20126;-67
2023/08/30 10:55:14;;;;;;;0.00;0.00;;;16.40;86.70;;;;;;5032206;28;20697;-68
2023/08/30 10:57:45;;;;;;;0.00;0.00;;;16.40;86.30;;;;;;5028138;28;20041;-67
2023/08/30 11:00:17;;;;;;;0.00;0.00;;;16.40;86.20;;;;;;5030298;28;20041;-69
2023/08/30 11:02:48;;;;;;;0.00;0.00;;;16.50;86.30;;;;;;5009903;28;20110;-67
2023/08/30 11:05:16;;;;;;;0.00;0.00;;;16.40;86.10;;;;;;5017264;28;20045;-66
2023/08/30 11:07:43;;;;;;;0.00;0.00;;;16.40;86.10;;;;;;5001439;28;20045;-67
2023/08/30 11:10:09;;;;;;;0.00;0.00;;;16.50;85.90;;;;;;5012400;28;20038;-67
2023/08/30 11:12:35;;;;;;;0.20;0.20;;;16.50;85.80;;;;;;5030874;28;20149;-67
2023/08/30 11:15:02;;;;;;;0.00;0.00;;;16.50;85.60;;;;;;5022347;28;20041;-67
2023/08/30 11:17:28;;;;;;;0.08;0.08;;;16.50;85.50;;;;;;5029261;28;20048;-67
2023/08/30 11:20:11;;;;;;;0.00;0.00;;;16.60;85.60;;;;;;5029786;28;20049;-67
2023/08/30 11:22:39;;;;;;;0.00;0.00;;;16.70;86.20;;;;;;5012956;28;20585;-67
2023/08/30 11:25:05;;;;;;;0.00;0.00;;;16.70;86.10;;;;;;5025478;28;20496;-67
2023/08/30 11:27:31;;;;;;;0.10;0.10;;;16.70;86.10;;;;;;5024222;28;20087;-66
2023/08/30 11:30:05;;;;;;;0.00;0.00;;;16.80;86.20;;;;;;5021403;28;20053;-67
2023/08/30 11:32:44;;;;;;;0.00;0.00;;;16.70;86.40;;;;;;5007599;28;20038;-67
2023/08/30 11:35:10;;;;;;;0.00;0.00;;;16.70;86.30;;;;;;5011088;28;20048;-67
2023/08/30 11:37:35;;;;;;;0.00;0.00;;;16.80;86.10;;;;;;5022000;28;20659;-67
2023/08/30 11:40:02;;;;;;;0.00;0.00;;;16.80;85.90;;;;;;5018542;28;20045;-68
2023/08/30 11:42:30;;;;;;;0.00;0.00;;;16.80;85.90;;;;;;5023440;28;20480;-67
2023/08/30 11:44:57;;;;;;;0.00;0.00;;;16.80;86.00;;;;;;5014550;28;20041;-68
2023/08/30 11:47:24;;;;;;;0.05;0.05;;;16.80;86.00;;;;;;5010482;28;20065;-68
2023/08/30 11:49:52;;;;;;;0.00;0.00;;;16.80;86.10;;;;;;5025184;28;20036;-67
2023/08/30 11:52:19;;;;;;;0.00;0.00;;;16.80;86.00;;;;;;5012791;28;20807;-67
2023/08/30 11:54:47;;;;;;;0.00;0.00;;;16.90;86.00;;;;;;5017949;28;20065;-67
2023/08/30 11:57:13;;;;;;;0.00;0.00;;;16.90;85.80;;;;;;5019741;28;20049;-67
2023/08/30 11:59:43;;;;;;;0.00;0.00;;;16.80;85.60;;;;;;5028058;28;20128;-67
2023/08/30 12:02:11;;;;;;;0.00;0.00;;;16.90;85.50;;;;;;5023372;28;20046;-67
2023/08/30 12:04:45;;;;;;;0.00;0.00;;;16.90;85.50;;;;;;5019655;28;20042;-67
2023/08/30 12:07:20;;;;;;;0.00;0.00;;;16.90;85.50;;;;;;5010292;28;20064;-67
2023/08/30 12:09:46;;;;;;;0.00;0.00;;;16.90;85.50;;;;;;5010022;28;20046;-67
2023/08/30 12:12:12;;;;;;;0.00;0.00;;;16.90;85.50;;;;;;5022537;28;20041;-67
2023/08/30 12:14:38;;;;;;;0.10;0.10;;;17.00;85.50;;;;;;5011306;28;20045;-67
2023/08/30 12:17:04;;;;;;;0.00;0.00;;;17.00;85.50;;;;;;5023176;28;20048;-67
2023/08/30 12:19:31;;;;;;;0.00;0.00;;;17.10;85.60;;;;;;5027895;28;20099;-66
2023/08/30 12:22:04;;;;;;;0.00;0.00;;;17.10;85.60;;;;;;4981319;28;20129;-66
2023/08/30 12:24:40;;;;;;;0.00;0.00;;;17.10;85.60;;;;;;5018755;28;20052;-67
2023/08/30 12:27:06;;;;;;;0.00;0.00;;;17.10;85.50;;;;;;5021186;28;20042;-67
2023/08/30 12:29:31;;;;;;;0.10;0.10;;;17.00;84.80;;;;;;5021416;28;20045;-67
2023/08/30 12:31:57;;;;;;;0.00;0.00;;;16.90;84.80;;;;;;5022209;28;20448;-68
2023/08/30 12:34:23;;;;;;;0.00;0.00;;;16.90;85.30;;;;;;5027329;28;20041;-68
2023/08/30 12:36:48;;;;;;;0.00;0.00;;;16.90;85.20;;;;;;5020985;28;20418;-68
2023/08/30 12:39:14;;;;;;;0.00;0.00;;;17.00;85.20;;;;;;5009617;28;20038;-68
2023/08/30 12:41:42;;;;;;;0.00;0.00;;;17.00;85.10;;;;;;5021387;28;20486;-67
2023/08/30 12:44:08;;;;;;;0.00;0.00;;;17.00;85.00;;;;;;5021015;28;20100;-67
2023/08/30 12:46:33;;;;;;;0.00;0.00;;;17.00;84.90;;;;;;5009613;28;20045;-67
2023/08/30 12:48:59;;;;;;;0.40;0.40;;;16.90;84.90;;;;;;5009479;28;20052;-67
2023/08/30 12:51:25;;;;;;;0.00;0.00;;;17.00;85.00;;;;;;5013628;28;20053;-67
2023/08/30 12:53:50;;;;;;;0.00;0.00;;;16.90;84.90;;;;;;5021652;28;20128;-67
2023/08/30 12:56:16;;;;;;;0.00;0.00;;;16.80;84.90;;;;;;5005084;28;20081;-67
2023/08/30 12:58:41;;;;;;;0.00;0.00;;;16.90;85.00;;;;;;5017381;28;20041;-67